Garze, China
Current Conditions -  °F | °C
As of 12:00 AM on Wednesday 22 Oct 2014 (Local Time) from ZUUU Reporting Station
Clear Clear  
Wind Chill: 64°   Ceiling: Unl
Heat Index: 64°   Visibility: 5mi
Dew Point: 55°   Wind: 2mph
Humidity: 73%   Direction: NA
Pressure: 30.18"   Gusts: NA
Location:  31.62°N, 100°E
Report Text: ZUUU 211600Z VRB01MPS 8000 NSC 18/13 Q1022 NOSIG
Loading
Personal Weather Stations






























Interactive Weather Map
Tropical Storm Tracking
New forecast layout! Learn more

10-Day Weather Forecast

Advertisements
Track Severe Weather on mobile